sensor_id;sensor_type;location;lat;lon;timestamp;P1;durP1;ratioP1;P2;durP2;ratioP2
66425;SDS011;53237;46.158;14.604;2023-09-30T00:02:11;4.97;;;4.10;;
66425;SDS011;53237;46.158;14.604;2023-09-30T00:04:37;4.75;;;3.95;;
66425;SDS011;53237;46.158;14.604;2023-09-30T00:07:03;5.05;;;4.65;;
66425;SDS011;53237;46.158;14.604;2023-09-30T00:09:30;4.72;;;4.40;;
66425;SDS011;53237;46.158;14.604;2023-09-30T00:11:56;4.30;;;4.00;;
66425;SDS011;53237;46.158;14.604;2023-09-30T00:14:22;5.13;;;4.72;;
66425;SDS011;53237;46.158;14.604;2023-09-30T00:16:49;4.90;;;4.38;;
66425;SDS011;53237;46.158;14.604;2023-09-30T00:19:15;4.28;;;3.88;;
66425;SDS011;53237;46.158;14.604;2023-09-30T00:21:41;5.10;;;4.70;;
66425;SDS011;53237;46.158;14.604;2023-09-30T00:24:08;5.68;;;4.22;;
66425;SDS011;53237;46.158;14.604;2023-09-30T00:26:34;4.38;;;4.07;;
66425;SDS011;53237;46.158;14.604;2023-09-30T00:29:00;4.70;;;4.30;;
66425;SDS011;53237;46.158;14.604;2023-09-30T00:31:30;4.55;;;4.15;;
66425;SDS011;53237;46.158;14.604;2023-09-30T00:33:56;4.30;;;4.00;;
66425;SDS011;53237;46.158;14.604;2023-09-30T00:36:22;4.25;;;3.95;;
66425;SDS011;53237;46.158;14.604;2023-09-30T00:38:48;4.45;;;4.05;;
66425;SDS011;53237;46.158;14.604;2023-09-30T00:41:14;4.47;;;3.88;;
66425;SDS011;53237;46.158;14.604;2023-09-30T00:43:40;5.13;;;4.72;;
66425;SDS011;53237;46.158;14.604;2023-09-30T00:48:47;5.10;;;4.70;;
66425;SDS011;53237;46.158;14.604;2023-09-30T00:51:13;4.32;;;4.03;;
66425;SDS011;53237;46.158;14.604;2023-09-30T00:53:39;4.55;;;4.25;;
66425;SDS011;53237;46.158;14.604;2023-09-30T00:56:06;4.72;;;4.32;;
66425;SDS011;53237;46.158;14.604;2023-09-30T00:58:32;4.53;;;4.22;;
66425;SDS011;53237;46.158;14.604;2023-09-30T01:01:00;4.40;;;4.10;;
66425;SDS011;53237;46.158;14.604;2023-09-30T01:03:26;4.22;;;3.92;;
66425;SDS011;53237;46.158;14.604;2023-09-30T01:05:52;5.40;;;4.90;;
66425;SDS011;53237;46.158;14.604;2023-09-30T01:08:19;4.60;;;4.20;;
66425;SDS011;53237;46.158;14.604;2023-09-30T01:10:45;4.90;;;4.18;;
66425;SDS011;53237;46.158;14.604;2023-09-30T01:13:11;4.30;;;4.00;;
66425;SDS011;53237;46.158;14.604;2023-09-30T01:15:37;4.95;;;4.55;;
66425;SDS011;53237;46.158;14.604;2023-09-30T01:18:04;4.60;;;4.20;;
66425;SDS011;53237;46.158;14.604;2023-09-30T01:20:30;5.35;;;4.65;;
66425;SDS011;53237;46.158;14.604;2023-09-30T01:22:57;4.25;;;3.95;;
66425;SDS011;53237;46.158;14.604;2023-09-30T01:25:23;4.63;;;4.22;;
66425;SDS011;53237;46.158;14.604;2023-09-30T01:27:49;4.13;;;3.83;;
66425;SDS011;53237;46.158;14.604;2023-09-30T01:30:20;4.32;;;4.03;;
66425;SDS011;53237;46.158;14.604;2023-09-30T01:32:48;4.30;;;3.90;;
66425;SDS011;53237;46.158;14.604;2023-09-30T01:35:14;4.75;;;4.35;;
66425;SDS011;53237;46.158;14.604;2023-09-30T01:37:40;4.50;;;4.10;;
66425;SDS011;53237;46.158;14.604;2023-09-30T01:40:06;4.40;;;4.00;;
66425;SDS011;53237;46.158;14.604;2023-09-30T01:42:35;4.20;;;3.90;;
66425;SDS011;53237;46.158;14.604;2023-09-30T01:45:01;4.32;;;4.00;;
66425;SDS011;53237;46.158;14.604;2023-09-30T01:47:28;4.82;;;4.43;;
66425;SDS011;53237;46.158;14.604;2023-09-30T01:49:54;4.38;;;4.05;;
66425;SDS011;53237;46.158;14.604;2023-09-30T01:52:20;4.78;;;4.38;;
66425;SDS011;53237;46.158;14.604;2023-09-30T01:54:46;5.25;;;4.38;;
66425;SDS011;53237;46.158;14.604;2023-09-30T01:57:12;4.57;;;4.13;;
66425;SDS011;53237;46.158;14.604;2023-09-30T01:59:38;4.68;;;4.28;;
66425;SDS011;53237;46.158;14.604;2023-09-30T02:02:04;4.60;;;4.13;;
66425;SDS011;53237;46.158;14.604;2023-09-30T02:04:30;4.50;;;4.10;;
66425;SDS011;53237;46.158;14.604;2023-09-30T02:06:56;5.10;;;4.70;;
66425;SDS011;53237;46.158;14.604;2023-09-30T02:09:23;4.85;;;4.35;;
66425;SDS011;53237;46.158;14.604;2023-09-30T02:11:49;5.63;;;4.60;;
66425;SDS011;53237;46.158;14.604;2023-09-30T02:14:15;4.63;;;4.22;;
66425;SDS011;53237;46.158;14.604;2023-09-30T02:16:41;4.50;;;4.10;;
66425;SDS011;53237;46.158;14.604;2023-09-30T02:19:07;4.80;;;4.40;;
66425;SDS011;53237;46.158;14.604;2023-09-30T02:21:35;4.80;;;4.32;;
66425;SDS011;53237;46.158;14.604;2023-09-30T02:24:01;4.75;;;4.35;;
66425;SDS011;53237;46.158;14.604;2023-09-30T02:26:27;4.75;;;4.28;;
66425;SDS011;53237;46.158;14.604;2023-09-30T02:28:54;5.38;;;4.88;;
66425;SDS011;53237;46.158;14.604;2023-09-30T02:31:20;4.72;;;4.32;;
66425;SDS011;53237;46.158;14.604;2023-09-30T02:33:46;5.32;;;4.82;;
66425;SDS011;53237;46.158;14.604;2023-09-30T02:36:13;5.65;;;4.60;;
66425;SDS011;53237;46.158;14.604;2023-09-30T02:38:39;4.97;;;4.50;;
66425;SDS011;53237;46.158;14.604;2023-09-30T02:41:06;4.80;;;4.40;;
66425;SDS011;53237;46.158;14.604;2023-09-30T02:43:32;5.38;;;4.90;;
66425;SDS011;53237;46.158;14.604;2023-09-30T02:45:58;5.85;;;4.80;;
66425;SDS011;53237;46.158;14.604;2023-09-30T02:48:24;4.72;;;4.32;;
66425;SDS011;53237;46.158;14.604;2023-09-30T02:50:50;5.05;;;4.63;;
66425;SDS011;53237;46.158;14.604;2023-09-30T02:53:16;4.45;;;4.15;;
66425;SDS011;53237;46.158;14.604;2023-09-30T02:55:42;5.30;;;4.32;;
66425;SDS011;53237;46.158;14.604;2023-09-30T02:58:08;4.90;;;4.50;;
66425;SDS011;53237;46.158;14.604;2023-09-30T03:00:35;4.90;;;4.50;;
66425;SDS011;53237;46.158;14.604;2023-09-30T03:03:02;4.93;;;4.53;;
66425;SDS011;53237;46.158;14.604;2023-09-30T03:05:29;4.65;;;4.25;;
66425;SDS011;53237;46.158;14.604;2023-09-30T03:07:58;4.15;;;3.85;;
66425;SDS011;53237;46.158;14.604;2023-09-30T03:10:24;4.78;;;4.38;;
66425;SDS011;53237;46.158;14.604;2023-09-30T03:12:58;4.50;;;4.18;;
66425;SDS011;53237;46.158;14.604;2023-09-30T03:15:27;4.88;;;4.47;;
66425;SDS011;53237;46.158;14.604;2023-09-30T03:17:55;4.65;;;4.28;;
66425;SDS011;53237;46.158;14.604;2023-09-30T03:20:21;4.85;;;4.40;;
66425;SDS011;53237;46.158;14.604;2023-09-30T03:22:50;4.65;;;4.25;;
66425;SDS011;53237;46.158;14.604;2023-09-30T03:25:16;4.65;;;4.25;;
66425;SDS011;53237;46.158;14.604;2023-09-30T03:27:46;4.70;;;4.30;;
66425;SDS011;53237;46.158;14.604;2023-09-30T03:30:16;5.13;;;4.63;;
66425;SDS011;53237;46.158;14.604;2023-09-30T03:32:42;5.35;;;4.95;;
66425;SDS011;53237;46.158;14.604;2023-09-30T03:35:09;5.03;;;4.45;;
66425;SDS011;53237;46.158;14.604;2023-09-30T03:37:36;4.50;;;4.10;;
66425;SDS011;53237;46.158;14.604;2023-09-30T03:40:02;6.50;;;4.60;;
66425;SDS011;53237;46.158;14.604;2023-09-30T03:42:37;4.97;;;4.57;;
66425;SDS011;53237;46.158;14.604;2023-09-30T03:45:04;5.28;;;4.57;;
66425;SDS011;53237;46.158;14.604;2023-09-30T03:47:32;4.63;;;4.32;;
66425;SDS011;53237;46.158;14.604;2023-09-30T03:49:58;4.93;;;4.50;;
66425;SDS011;53237;46.158;14.604;2023-09-30T03:52:24;4.95;;;4.47;;
66425;SDS011;53237;46.158;14.604;2023-09-30T03:54:51;4.95;;;4.55;;
66425;SDS011;53237;46.158;14.604;2023-09-30T03:57:18;4.80;;;4.40;;
66425;SDS011;53237;46.158;14.604;2023-09-30T03:59:44;4.65;;;3.85;;
66425;SDS011;53237;46.158;14.604;2023-09-30T04:02:13;4.68;;;4.28;;
66425;SDS011;53237;46.158;14.604;2023-09-30T04:04:39;4.43;;;4.10;;
66425;SDS011;53237;46.158;14.604;2023-09-30T04:07:05;4.63;;;4.32;;
66425;SDS011;53237;46.158;14.604;2023-09-30T04:09:34;4.72;;;4.35;;
66425;SDS011;53237;46.158;14.604;2023-09-30T04:12:01;4.65;;;4.20;;
66425;SDS011;53237;46.158;14.604;2023-09-30T04:14:27;5.03;;;4.53;;
66425;SDS011;53237;46.158;14.604;2023-09-30T04:16:53;4.95;;;4.45;;
66425;SDS011;53237;46.158;14.604;2023-09-30T04:19:19;5.10;;;4.60;;
66425;SDS011;53237;46.158;14.604;2023-09-30T04:21:46;5.22;;;4.72;;
66425;SDS011;53237;46.158;14.604;2023-09-30T04:24:12;6.15;;;4.97;;
66425;SDS011;53237;46.158;14.604;2023-09-30T04:26:38;5.20;;;4.80;;
66425;SDS011;53237;46.158;14.604;2023-09-30T04:29:05;4.40;;;4.10;;
66425;SDS011;53237;46.158;14.604;2023-09-30T04:31:35;5.05;;;4.55;;
66425;SDS011;53237;46.158;14.604;2023-09-30T04:34:02;5.15;;;4.45;;
66425;SDS011;53237;46.158;14.604;2023-09-30T04:36:29;4.57;;;4.18;;
66425;SDS011;53237;46.158;14.604;2023-09-30T04:38:55;5.07;;;4.65;;
66425;SDS011;53237;46.158;14.604;2023-09-30T04:41:21;4.57;;;4.15;;
66425;SDS011;53237;46.158;14.604;2023-09-30T04:43:49;4.80;;;4.40;;
66425;SDS011;53237;46.158;14.604;2023-09-30T04:46:17;4.75;;;4.35;;
66425;SDS011;53237;46.158;14.604;2023-09-30T04:48:45;5.55;;;4.18;;
66425;SDS011;53237;46.158;14.604;2023-09-30T04:51:13;5.22;;;4.72;;
66425;SDS011;53237;46.158;14.604;2023-09-30T04:53:43;4.28;;;3.97;;
66425;SDS011;53237;46.158;14.604;2023-09-30T04:56:11;4.50;;;4.10;;
66425;SDS011;53237;46.158;14.604;2023-09-30T04:58:37;4.75;;;4.35;;
66425;SDS011;53237;46.158;14.604;2023-09-30T05:01:03;6.35;;;5.05;;
66425;SDS011;53237;46.158;14.604;2023-09-30T05:03:29;6.45;;;4.60;;
66425;SDS011;53237;46.158;14.604;2023-09-30T05:05:55;4.43;;;4.03;;
66425;SDS011;53237;46.158;14.604;2023-09-30T05:08:23;4.72;;;4.35;;
66425;SDS011;53237;46.158;14.604;2023-09-30T05:10:49;5.15;;;4.75;;
66425;SDS011;53237;46.158;14.604;2023-09-30T05:13:15;5.00;;;4.60;;
66425;SDS011;53237;46.158;14.604;2023-09-30T05:15:42;4.45;;;4.13;;
66425;SDS011;53237;46.158;14.604;2023-09-30T05:18:08;4.40;;;4.00;;
66425;SDS011;53237;46.158;14.604;2023-09-30T05:20:34;5.28;;;4.70;;
66425;SDS011;53237;46.158;14.604;2023-09-30T05:23:01;4.82;;;4.43;;
66425;SDS011;53237;46.158;14.604;2023-09-30T05:25:28;5.03;;;4.63;;
66425;SDS011;53237;46.158;14.604;2023-09-30T05:27:54;4.82;;;4.32;;
66425;SDS011;53237;46.158;14.604;2023-09-30T05:30:21;5.07;;;4.68;;
66425;SDS011;53237;46.158;14.604;2023-09-30T05:32:47;5.25;;;4.78;;
66425;SDS011;53237;46.158;14.604;2023-09-30T05:35:13;4.45;;;4.05;;
66425;SDS011;53237;46.158;14.604;2023-09-30T05:37:42;5.03;;;4.55;;
66425;SDS011;53237;46.158;14.604;2023-09-30T05:40:10;5.05;;;4.60;;
66425;SDS011;53237;46.158;14.604;2023-09-30T05:42:55;4.82;;;4.43;;
66425;SDS011;53237;46.158;14.604;2023-09-30T05:45:23;5.13;;;4.57;;
66425;SDS011;53237;46.158;14.604;2023-09-30T05:47:49;4.80;;;4.30;;
66425;SDS011;53237;46.158;14.604;2023-09-30T05:50:17;4.32;;;3.92;;
66425;SDS011;53237;46.158;14.604;2023-09-30T05:52:49;4.55;;;4.15;;
66425;SDS011;53237;46.158;14.604;2023-09-30T05:55:16;4.55;;;4.15;;
66425;SDS011;53237;46.158;14.604;2023-09-30T05:57:44;4.63;;;4.22;;
66425;SDS011;53237;46.158;14.604;2023-09-30T06:00:11;6.95;;;4.28;;
66425;SDS011;53237;46.158;14.604;2023-09-30T06:02:39;4.95;;;4.45;;
66425;SDS011;53237;46.158;14.604;2023-09-30T06:05:06;4.03;;;3.63;;
66425;SDS011;53237;46.158;14.604;2023-09-30T06:07:32;4.65;;;4.25;;
66425;SDS011;53237;46.158;14.604;2023-09-30T06:09:58;4.82;;;4.40;;
66425;SDS011;53237;46.158;14.604;2023-09-30T06:12:28;4.35;;;3.95;;
66425;SDS011;53237;46.158;14.604;2023-09-30T06:14:54;4.20;;;3.90;;
66425;SDS011;53237;46.158;14.604;2023-09-30T06:17:20;4.93;;;4.45;;
66425;SDS011;53237;46.158;14.604;2023-09-30T06:19:47;4.60;;;4.20;;
66425;SDS011;53237;46.158;14.604;2023-09-30T06:22:15;4.88;;;4.35;;
66425;SDS011;53237;46.158;14.604;2023-09-30T06:24:42;4.43;;;4.07;;
66425;SDS011;53237;46.158;14.604;2023-09-30T06:27:08;5.32;;;4.70;;
66425;SDS011;53237;46.158;14.604;2023-09-30T06:29:38;4.70;;;4.30;;
66425;SDS011;53237;46.158;14.604;2023-09-30T06:32:06;3.85;;;3.55;;
66425;SDS011;53237;46.158;14.604;2023-09-30T06:34:32;4.10;;;3.80;;
66425;SDS011;53237;46.158;14.604;2023-09-30T06:36:59;4.60;;;4.20;;
66425;SDS011;53237;46.158;14.604;2023-09-30T06:39:25;4.47;;;4.15;;
66425;SDS011;53237;46.158;14.604;2023-09-30T06:41:51;4.30;;;3.90;;
66425;SDS011;53237;46.158;14.604;2023-09-30T06:44:17;4.45;;;4.05;;
66425;SDS011;53237;46.158;14.604;2023-09-30T06:46:44;4.63;;;4.22;;
66425;SDS011;53237;46.158;14.604;2023-09-30T06:49:10;4.63;;;4.25;;
66425;SDS011;53237;46.158;14.604;2023-09-30T06:51:36;4.85;;;4.40;;
66425;SDS011;53237;46.158;14.604;2023-09-30T06:54:04;4.15;;;3.75;;
66425;SDS011;53237;46.158;14.604;2023-09-30T06:56:31;4.50;;;4.10;;
66425;SDS011;53237;46.158;14.604;2023-09-30T06:58:57;4.68;;;4.28;;
66425;SDS011;53237;46.158;14.604;2023-09-30T07:01:24;4.97;;;4.57;;
66425;SDS011;53237;46.158;14.604;2023-09-30T07:03:50;4.40;;;4.07;;
66425;SDS011;53237;46.158;14.604;2023-09-30T07:06:26;4.68;;;4.28;;
66425;SDS011;53237;46.158;14.604;2023-09-30T07:08:52;4.57;;;4.18;;
66425;SDS011;53237;46.158;14.604;2023-09-30T07:11:28;5.13;;;4.72;;
66425;SDS011;53237;46.158;14.604;2023-09-30T07:13:54;4.50;;;4.20;;
66425;SDS011;53237;46.158;14.604;2023-09-30T07:16:20;5.15;;;4.75;;
66425;SDS011;53237;46.158;14.604;2023-09-30T07:18:46;4.78;;;4.38;;
66425;SDS011;53237;46.158;14.604;2023-09-30T07:21:13;5.55;;;5.05;;
66425;SDS011;53237;46.158;14.604;2023-09-30T07:23:39;5.97;;;5.38;;
66425;SDS011;53237;46.158;14.604;2023-09-30T07:26:06;5.45;;;4.95;;
66425;SDS011;53237;46.158;14.604;2023-09-30T07:28:32;4.88;;;4.53;;
66425;SDS011;53237;46.158;14.604;2023-09-30T07:30:58;5.10;;;4.70;;
66425;SDS011;53237;46.158;14.604;2023-09-30T07:33:24;5.30;;;4.80;;
66425;SDS011;53237;46.158;14.604;2023-09-30T07:35:51;4.47;;;4.18;;
66425;SDS011;53237;46.158;14.604;2023-09-30T07:38:17;4.97;;;4.57;;
66425;SDS011;53237;46.158;14.604;2023-09-30T07:40:43;6.47;;;5.97;;
66425;SDS011;53237;46.158;14.604;2023-09-30T07:43:09;7.13;;;6.53;;
66425;SDS011;53237;46.158;14.604;2023-09-30T07:45:37;6.53;;;6.00;;
66425;SDS011;53237;46.158;14.604;2023-09-30T07:48:04;6.45;;;5.85;;
66425;SDS011;53237;46.158;14.604;2023-09-30T07:50:30;12.27;;;6.15;;
66425;SDS011;53237;46.158;14.604;2023-09-30T07:52:56;6.03;;;4.95;;
66425;SDS011;53237;46.158;14.604;2023-09-30T07:55:23;7.07;;;6.47;;
66425;SDS011;53237;46.158;14.604;2023-09-30T07:57:49;6.20;;;5.60;;
66425;SDS011;53237;46.158;14.604;2023-09-30T08:00:15;6.70;;;5.97;;
66425;SDS011;53237;46.158;14.604;2023-09-30T08:02:42;6.75;;;6.15;;
66425;SDS011;53237;46.158;14.604;2023-09-30T08:05:08;6.35;;;5.80;;
66425;SDS011;53237;46.158;14.604;2023-09-30T08:07:34;6.88;;;6.28;;
66425;SDS011;53237;46.158;14.604;2023-09-30T08:10:01;7.13;;;6.43;;
66425;SDS011;53237;46.158;14.604;2023-09-30T08:12:30;7.57;;;6.88;;
66425;SDS011;53237;46.158;14.604;2023-09-30T08:14:56;6.38;;;5.88;;
66425;SDS011;53237;46.158;14.604;2023-09-30T08:17:22;7.15;;;6.47;;
66425;SDS011;53237;46.158;14.604;2023-09-30T08:19:48;6.85;;;6.15;;
66425;SDS011;53237;46.158;14.604;2023-09-30T08:22:14;6.95;;;6.35;;
66425;SDS011;53237;46.158;14.604;2023-09-30T08:24:40;7.13;;;6.25;;
66425;SDS011;53237;46.158;14.604;2023-09-30T08:27:07;6.65;;;6.13;;
66425;SDS011;53237;46.158;14.604;2023-09-30T08:29:33;6.70;;;6.18;;
66425;SDS011;53237;46.158;14.604;2023-09-30T08:32:02;6.60;;;6.00;;
66425;SDS011;53237;46.158;14.604;2023-09-30T08:34:29;6.65;;;6.05;;
66425;SDS011;53237;46.158;14.604;2023-09-30T08:36:55;7.75;;;6.30;;
66425;SDS011;53237;46.158;14.604;2023-09-30T08:39:22;6.28;;;5.65;;
66425;SDS011;53237;46.158;14.604;2023-09-30T08:41:49;6.90;;;6.28;;
66425;SDS011;53237;46.158;14.604;2023-09-30T08:44:16;7.20;;;6.50;;
66425;SDS011;53237;46.158;14.604;2023-09-30T08:46:42;6.55;;;5.95;;
66425;SDS011;53237;46.158;14.604;2023-09-30T08:49:09;6.47;;;5.97;;
66425;SDS011;53237;46.158;14.604;2023-09-30T08:51:36;6.60;;;6.00;;
66425;SDS011;53237;46.158;14.604;2023-09-30T08:54:03;6.40;;;5.90;;
66425;SDS011;53237;46.158;14.604;2023-09-30T08:56:30;7.43;;;6.72;;
66425;SDS011;53237;46.158;14.604;2023-09-30T08:59:02;6.40;;;5.85;;
66425;SDS011;53237;46.158;14.604;2023-09-30T09:01:29;6.32;;;5.82;;
66425;SDS011;53237;46.158;14.604;2023-09-30T09:03:56;5.97;;;5.53;;
66425;SDS011;53237;46.158;14.604;2023-09-30T09:06:22;6.95;;;6.25;;
66425;SDS011;53237;46.158;14.604;2023-09-30T09:08:48;7.35;;;6.00;;
66425;SDS011;53237;46.158;14.604;2023-09-30T09:11:14;5.65;;;5.15;;
66425;SDS011;53237;46.158;14.604;2023-09-30T09:16:15;5.88;;;5.38;;
66425;SDS011;53237;46.158;14.604;2023-09-30T09:18:42;7.40;;;5.28;;
66425;SDS011;53237;46.158;14.604;2023-09-30T09:21:09;6.30;;;5.70;;
66425;SDS011;53237;46.158;14.604;2023-09-30T09:23:39;7.03;;;6.43;;
66425;SDS011;53237;46.158;14.604;2023-09-30T09:26:05;6.38;;;5.78;;
66425;SDS011;53237;46.158;14.604;2023-09-30T09:28:35;6.10;;;5.60;;
66425;SDS011;53237;46.158;14.604;2023-09-30T09:31:07;6.93;;;5.53;;
66425;SDS011;53237;46.158;14.604;2023-09-30T09:33:45;6.88;;;6.28;;
66425;SDS011;53237;46.158;14.604;2023-09-30T09:36:11;7.43;;;6.35;;
66425;SDS011;53237;46.158;14.604;2023-09-30T09:38:43;6.57;;;5.43;;
66425;SDS011;53237;46.158;14.604;2023-09-30T09:41:09;7.03;;;6.43;;
66425;SDS011;53237;46.158;14.604;2023-09-30T09:43:38;5.35;;;4.85;;
66425;SDS011;53237;46.158;14.604;2023-09-30T09:46:07;6.00;;;5.50;;
66425;SDS011;53237;46.158;14.604;2023-09-30T09:48:36;6.78;;;6.22;;
66425;SDS011;53237;46.158;14.604;2023-09-30T09:51:03;7.45;;;6.68;;
66425;SDS011;53237;46.158;14.604;2023-09-30T09:53:36;6.25;;;5.75;;
66425;SDS011;53237;46.158;14.604;2023-09-30T09:58:32;5.25;;;4.75;;
66425;SDS011;53237;46.158;14.604;2023-09-30T10:01:03;6.18;;;5.68;;
66425;SDS011;53237;46.158;14.604;2023-09-30T10:03:30;5.53;;;5.03;;
66425;SDS011;53237;46.158;14.604;2023-09-30T10:05:56;5.90;;;5.40;;
66425;SDS011;53237;46.158;14.604;2023-09-30T10:08:28;5.57;;;5.07;;
66425;SDS011;53237;46.158;14.604;2023-09-30T10:10:56;5.47;;;5.07;;
66425;SDS011;53237;46.158;14.604;2023-09-30T10:16:16;5.50;;;5.00;;
66425;SDS011;53237;46.158;14.604;2023-09-30T10:19:09;7.22;;;5.00;;
66425;SDS011;53237;46.158;14.604;2023-09-30T10:21:35;5.30;;;4.80;;
66425;SDS011;53237;46.158;14.604;2023-09-30T10:26:46;5.50;;;5.00;;
66425;SDS011;53237;46.158;14.604;2023-09-30T10:29:12;5.13;;;4.63;;
66425;SDS011;53237;46.158;14.604;2023-09-30T10:31:51;5.05;;;4.55;;
66425;SDS011;53237;46.158;14.604;2023-09-30T10:34:21;5.50;;;5.05;;
66425;SDS011;53237;46.158;14.604;2023-09-30T10:36:47;5.50;;;5.00;;
66425;SDS011;53237;46.158;14.604;2023-09-30T10:39:16;5.20;;;4.70;;
66425;SDS011;53237;46.158;14.604;2023-09-30T10:42:01;5.00;;;4.57;;
66425;SDS011;53237;46.158;14.604;2023-09-30T10:46:57;5.03;;;4.53;;
66425;SDS011;53237;46.158;14.604;2023-09-30T10:51:54;5.45;;;4.35;;
66425;SDS011;53237;46.158;14.604;2023-09-30T10:54:24;5.47;;;4.55;;
66425;SDS011;53237;46.158;14.604;2023-09-30T10:56:51;5.63;;;4.95;;
66425;SDS011;53237;46.158;14.604;2023-09-30T10:59:23;5.45;;;4.95;;
66425;SDS011;53237;46.158;14.604;2023-09-30T11:01:50;5.45;;;4.20;;
66425;SDS011;53237;46.158;14.604;2023-09-30T11:04:16;6.38;;;4.95;;
66425;SDS011;53237;46.158;14.604;2023-09-30T11:06:43;5.43;;;4.90;;
66425;SDS011;53237;46.158;14.604;2023-09-30T11:09:14;4.90;;;4.50;;
66425;SDS011;53237;46.158;14.604;2023-09-30T11:11:42;6.70;;;4.90;;
66425;SDS011;53237;46.158;14.604;2023-09-30T11:14:22;6.00;;;5.03;;
66425;SDS011;53237;46.158;14.604;2023-09-30T11:16:52;5.60;;;4.90;;
66425;SDS011;53237;46.158;14.604;2023-09-30T11:19:19;4.95;;;4.10;;
66425;SDS011;53237;46.158;14.604;2023-09-30T11:21:54;5.60;;;4.90;;
66425;SDS011;53237;46.158;14.604;2023-09-30T11:24:20;5.38;;;4.88;;
66425;SDS011;53237;46.158;14.604;2023-09-30T11:26:47;5.47;;;4.32;;
66425;SDS011;53237;46.158;14.604;2023-09-30T11:29:14;7.32;;;4.63;;
66425;SDS011;53237;46.158;14.604;2023-09-30T11:31:44;10.77;;;5.38;;
66425;SDS011;53237;46.158;14.604;2023-09-30T11:34:11;6.47;;;5.15;;
66425;SDS011;53237;46.158;14.604;2023-09-30T11:36:38;7.03;;;5.13;;
66425;SDS011;53237;46.158;14.604;2023-09-30T11:39:07;6.68;;;5.18;;
66425;SDS011;53237;46.158;14.604;2023-09-30T11:44:11;6.03;;;5.05;;
66425;SDS011;53237;46.158;14.604;2023-09-30T11:46:51;7.40;;;5.30;;
66425;SDS011;53237;46.158;14.604;2023-09-30T11:49:33;5.75;;;5.25;;
66425;SDS011;53237;46.158;14.604;2023-09-30T11:52:12;5.75;;;4.60;;
66425;SDS011;53237;46.158;14.604;2023-09-30T11:54:42;4.93;;;4.32;;
66425;SDS011;53237;46.158;14.604;2023-09-30T11:57:15;7.20;;;4.85;;
66425;SDS011;53237;46.158;14.604;2023-09-30T11:59:42;7.10;;;5.35;;
66425;SDS011;53237;46.158;14.604;2023-09-30T12:02:08;5.80;;;5.25;;
66425;SDS011;53237;46.158;14.604;2023-09-30T12:04:35;5.10;;;4.68;;
66425;SDS011;53237;46.158;14.604;2023-09-30T12:07:01;6.45;;;5.20;;
66425;SDS011;53237;46.158;14.604;2023-09-30T12:09:27;4.78;;;4.28;;
66425;SDS011;53237;46.158;14.604;2023-09-30T12:11:53;5.35;;;4.95;;
66425;SDS011;53237;46.158;14.604;2023-09-30T12:14:22;4.95;;;4.45;;
66425;SDS011;53237;46.158;14.604;2023-09-30T12:16:49;5.70;;;5.00;;
66425;SDS011;53237;46.158;14.604;2023-09-30T12:19:15;5.07;;;4.47;;
66425;SDS011;53237;46.158;14.604;2023-09-30T12:21:43;6.65;;;5.72;;
66425;SDS011;53237;46.158;14.604;2023-09-30T12:24:11;7.75;;;4.82;;
66425;SDS011;53237;46.158;14.604;2023-09-30T12:26:41;5.90;;;5.13;;
66425;SDS011;53237;46.158;14.604;2023-09-30T12:29:07;5.43;;;4.93;;
66425;SDS011;53237;46.158;14.604;2023-09-30T12:31:34;7.03;;;4.75;;
66425;SDS011;53237;46.158;14.604;2023-09-30T12:34:01;6.22;;;4.28;;
66425;SDS011;53237;46.158;14.604;2023-09-30T12:36:27;4.80;;;4.40;;
66425;SDS011;53237;46.158;14.604;2023-09-30T12:38:53;4.80;;;4.40;;
66425;SDS011;53237;46.158;14.604;2023-09-30T12:41:19;5.68;;;4.63;;
66425;SDS011;53237;46.158;14.604;2023-09-30T12:43:46;5.43;;;4.93;;
66425;SDS011;53237;46.158;14.604;2023-09-30T12:46:12;5.03;;;4.63;;
66425;SDS011;53237;46.158;14.604;2023-09-30T12:48:38;5.13;;;4.53;;
66425;SDS011;53237;46.158;14.604;2023-09-30T12:51:04;5.63;;;5.13;;
66425;SDS011;53237;46.158;14.604;2023-09-30T12:53:32;7.13;;;4.75;;
66425;SDS011;53237;46.158;14.604;2023-09-30T12:55:58;5.70;;;4.20;;
66425;SDS011;53237;46.158;14.604;2023-09-30T12:58:25;5.80;;;5.30;;
66425;SDS011;53237;46.158;14.604;2023-09-30T13:00:53;5.13;;;4.25;;
66425;SDS011;53237;46.158;14.604;2023-09-30T13:03:19;5.10;;;4.60;;
66425;SDS011;53237;46.158;14.604;2023-09-30T13:05:45;5.10;;;4.45;;
66425;SDS011;53237;46.158;14.604;2023-09-30T13:08:11;6.07;;;4.78;;
66425;SDS011;53237;46.158;14.604;2023-09-30T13:10:37;5.00;;;4.60;;
66425;SDS011;53237;46.158;14.604;2023-09-30T13:13:03;5.22;;;4.65;;
66425;SDS011;53237;46.158;14.604;2023-09-30T13:15:30;5.10;;;4.60;;
66425;SDS011;53237;46.158;14.604;2023-09-30T13:17:56;5.60;;;5.10;;
66425;SDS011;53237;46.158;14.604;2023-09-30T13:20:22;5.03;;;4.53;;
66425;SDS011;53237;46.158;14.604;2023-09-30T13:22:48;7.10;;;5.00;;
66425;SDS011;53237;46.158;14.604;2023-09-30T13:25:15;5.38;;;4.88;;
66425;SDS011;53237;46.158;14.604;2023-09-30T13:27:41;5.20;;;4.70;;
66425;SDS011;53237;46.158;14.604;2023-09-30T13:30:08;6.38;;;4.93;;
66425;SDS011;53237;46.158;14.604;2023-09-30T13:32:35;5.78;;;4.35;;
66425;SDS011;53237;46.158;14.604;2023-09-30T13:35:02;5.15;;;4.57;;
66425;SDS011;53237;46.158;14.604;2023-09-30T13:37:29;6.10;;;5.13;;
66425;SDS011;53237;46.158;14.604;2023-09-30T13:39:58;5.28;;;4.72;;
66425;SDS011;53237;46.158;14.604;2023-09-30T13:42:24;4.72;;;4.20;;
66425;SDS011;53237;46.158;14.604;2023-09-30T13:44:50;6.10;;;5.50;;
66425;SDS011;53237;46.158;14.604;2023-09-30T13:47:16;5.78;;;4.45;;
66425;SDS011;53237;46.158;14.604;2023-09-30T13:49:42;6.00;;;5.15;;
66425;SDS011;53237;46.158;14.604;2023-09-30T13:52:08;6.97;;;5.50;;
66425;SDS011;53237;46.158;14.604;2023-09-30T13:54:34;13.95;;;10.65;;
66425;SDS011;53237;46.158;14.604;2023-09-30T13:57:00;14.60;;;9.30;;
66425;SDS011;53237;46.158;14.604;2023-09-30T13:59:26;18.27;;;12.35;;
66425;SDS011;53237;46.158;14.604;2023-09-30T14:01:52;13.27;;;9.45;;
66425;SDS011;53237;46.158;14.604;2023-09-30T14:04:18;6.07;;;5.30;;
66425;SDS011;53237;46.158;14.604;2023-09-30T14:06:45;8.40;;;5.78;;
66425;SDS011;53237;46.158;14.604;2023-09-30T14:09:12;7.40;;;5.93;;
66425;SDS011;53237;46.158;14.604;2023-09-30T14:11:40;6.93;;;6.20;;
66425;SDS011;53237;46.158;14.604;2023-09-30T14:14:07;6.53;;;5.80;;
66425;SDS011;53237;46.158;14.604;2023-09-30T14:16:34;6.45;;;4.97;;
66425;SDS011;53237;46.158;14.604;2023-09-30T14:19:01;5.25;;;4.75;;
66425;SDS011;53237;46.158;14.604;2023-09-30T14:21:27;5.30;;;4.70;;
66425;SDS011;53237;46.158;14.604;2023-09-30T14:23:53;8.13;;;5.45;;
66425;SDS011;53237;46.158;14.604;2023-09-30T14:26:19;5.57;;;5.03;;
66425;SDS011;53237;46.158;14.604;2023-09-30T14:28:45;4.97;;;4.47;;
66425;SDS011;53237;46.158;14.604;2023-09-30T14:31:11;5.38;;;4.88;;
66425;SDS011;53237;46.158;14.604;2023-09-30T14:33:39;5.30;;;4.80;;
66425;SDS011;53237;46.158;14.604;2023-09-30T14:36:05;5.50;;;4.60;;
66425;SDS011;53237;46.158;14.604;2023-09-30T14:38:31;5.22;;;4.70;;
66425;SDS011;53237;46.158;14.604;2023-09-30T14:40:57;5.35;;;4.85;;
66425;SDS011;53237;46.158;14.604;2023-09-30T14:43:23;5.93;;;4.85;;
66425;SDS011;53237;46.158;14.604;2023-09-30T14:45:50;5.00;;;4.50;;
66425;SDS011;53237;46.158;14.604;2023-09-30T14:48:16;5.68;;;4.43;;
66425;SDS011;53237;46.158;14.604;2023-09-30T14:50:49;6.88;;;4.70;;
66425;SDS011;53237;46.158;14.604;2023-09-30T14:53:15;5.57;;;5.03;;
66425;SDS011;53237;46.158;14.604;2023-09-30T14:55:41;5.55;;;5.05;;